Rhode Island Logo

Providence, RI Single Family Real Estate Listings

224 Total Real Estate Listings * Click on table heading to sort
Date Posted Property Type Style Address Price Living Area Lot Size Price/Sq Ft.
2018-12-16 Single Family Bungalow 279 Althea St Providence, RI 02909 $179,900 768 sq. ft. 3,049 sq. ft. $234
2018-12-14 Single Family Colonial 133 Verndale Av Providence, RI 02907 $249,900 1,596 sq. ft. 4,356 sq. ft. $157
2018-12-13 Single Family Cape Cod 41 Prosper St Providence, RI 02904 $199,900 1,092 sq. ft. 4,792 sq. ft. $183
2018-12-13 Single Family Ranch 106 Seamans St Providence, RI 02908 $229,000 984 sq. ft. 4,356 sq. ft. $233
2018-12-12 Single Family Ranch 118 Rome Av Providence, RI 02908 $234,900 864 sq. ft. 10,890 sq. ft. $272
2018-12-11 Single Family Raised Ranch 145 Ophelia St Providence, RI 02909 $199,000 828 sq. ft. 4,792 sq. ft. $240
2018-12-10 Single Family 232 Wallace St Providence, RI 02909 $259,900 1,360 sq. ft. 10,019 sq. ft. $191
2018-12-10 Single Family Victorian 95 Andem St Providence, RI 02908 $200,000 1,961 sq. ft. 4,356 sq. ft. $102
2018-12-10 Single Family Colonial 115 Calla St Providence, RI 02905 $225,000 1,450 sq. ft. 5,227 sq. ft. $155
2018-12-10 Single Family Cape Cod 155 Canton St Providence, RI 02908 $249,000 1,289 sq. ft. 4,356 sq. ft. $193
2018-12-10 Single Family Colonial 33 Joy St Providence, RI 02908 $329,900 1,230 sq. ft. 4,356 sq. ft. $268
2018-12-08 Single Family Colonial 67 Trask St Providence, RI 02905 $175,000 1,144 sq. ft. 3,049 sq. ft. $153
2018-12-07 Single Family Bungalow 50 Louis Av Providence, RI 02907 $199,000 1,206 sq. ft. 3,485 sq. ft. $165
2018-12-07 Single Family Raised Ranch 12 Ortoleva Dr Providence, RI 02909 $249,900 2,304 sq. ft. 3,049 sq. ft. $108
2018-12-06 Single Family Cottage 111 Metcalf St Providence, RI 02904 $159,900 1,069 sq. ft. 3,049 sq. ft. $150
2018-12-06 Single Family 279 Indiana Av Providence, RI 02905 $205,000 1,504 sq. ft. 3,049 sq. ft. $136
2018-12-06 Single Family Bungalow 150 Salina St Providence, RI 02908 $184,299 1,405 sq. ft. 0 sq. ft. $131
2018-12-06 Single Family Cape Cod 103 Henrietta St Providence, RI 02904 $150,000 1,496 sq. ft. 4,792 sq. ft. $100
2018-12-06 Single Family Colonial 72 Priscilla Av Providence, RI 02909 $204,900 1,300 sq. ft. 3,485 sq. ft. $158
2018-12-05 Single Family Cottage 19 Vandewater St Providence, RI 02908 $194,900 1,200 sq. ft. 3,049 sq. ft. $162
2018-12-05 Single Family 113 Oakland Av Providence, RI 02908 $194,900 1,358 sq. ft. 3,920 sq. ft. $144
2018-12-05 Single Family Cape Cod 73 Tiffany St Providence, RI 02908 $179,000 1,614 sq. ft. 4,792 sq. ft. $111
2018-12-05 Single Family Colonial 57 Sussex St Providence, RI 02908 $209,900 1,716 sq. ft. 3,920 sq. ft. $122
2018-12-04 Single Family Ranch 33 Balmoral Av Providence, RI 02908 $219,000 1,026 sq. ft. 5,227 sq. ft. $213
2018-12-04 Single Family Ranch 117 Devonshire St Providence, RI 02908 $209,900 918 sq. ft. 3,049 sq. ft. $229
2018-12-04 Single Family Cottage 44 Mercy St Providence, RI 02909 $180,000 1,256 sq. ft. 3,049 sq. ft. $143
2018-12-04 Single Family Contemporary; Split Level 86 Erie St Providence, RI 02908 $285,000 1,387 sq. ft. 6,098 sq. ft. $205
2018-12-03 Single Family Cape Cod 49 Ethan St Providence, RI 02909 $189,900 1,361 sq. ft. 4,792 sq. ft. $140
2018-12-03 Single Family Bungalow 31 Brockton St Providence, RI 02904 $239,900 1,284 sq. ft. 3,485 sq. ft. $187
2018-12-01 Single Family 13 - 17 Madison St Providence, RI 02907 $44,900 1,234 sq. ft. 2,178 sq. ft. $36
2018-11-30 Single Family Ranch 55 Victoria St Providence, RI 02909 $210,000 1,092 sq. ft. 3,920 sq. ft. $192
2018-11-30 Single Family Bungalow; Cottage 14 Berlin St Providence, RI 02908 $169,000 1,123 sq. ft. 3,049 sq. ft. $150
2018-11-29 Single Family Colonial 216 Broadway Wy Providence, RI 02903 $479,000 5,562 sq. ft. 6,098 sq. ft. $86
2018-11-29 Single Family 29 Maplehurst Av Providence, RI 02909 $199,900 1,488 sq. ft. 3,920 sq. ft. $134
2018-11-29 Single Family Cottage 182 Ontario St Providence, RI 02907 $149,900 1,521 sq. ft. 4,792 sq. ft. $99
2018-11-29 Single Family Colonial 35 Alger Av Providence, RI 02907 $250,000 1,300 sq. ft. 9,148 sq. ft. $192
2018-11-28 Single Family Ranch 1080 Smith St Providence, RI 02908 $160,000 1,217 sq. ft. 6,098 sq. ft. $131
2018-11-27 Single Family Ranch 31 Henrietta St Providence, RI 02904 $249,000 912 sq. ft. 3,049 sq. ft. $273
2018-11-27 Single Family Bungalow 137 Salina St Providence, RI 02908 $175,000 1,040 sq. ft. 3,920 sq. ft. $168
2018-11-27 Single Family 257 Niagara St Providence, RI 02907 $150,000 1,851 sq. ft. 0 sq. ft. $81
2018-11-26 Single Family Cape Cod 139 Prudence Av Providence, RI 02909 $174,900 1,492 sq. ft. 5,663 sq. ft. $117
2018-11-26 Single Family Ranch 42 Barden St Providence, RI 02909 $174,000 960 sq. ft. 3,920 sq. ft. $181
2018-11-26 Single Family Colonial; Cottage 69 Leah St Providence, RI 02908 $129,900 960 sq. ft. 3,049 sq. ft. $135
2018-11-26 Single Family Raised Ranch 74 Wilna St Providence, RI 02904 $244,900 1,218 sq. ft. 6,534 sq. ft. $201
2018-11-26 Single Family Colonial 90 Baxter St Providence, RI 02905 $189,900 1,548 sq. ft. 3,049 sq. ft. $123
2018-11-26 Single Family Ranch 141 Ortoleva Dr Providence, RI 02909 $174,900 960 sq. ft. 3,049 sq. ft. $182
2018-11-25 Single Family Bungalow; Cape Cod 9 Locust St Providence, RI 02906 $314,900 1,106 sq. ft. 3,049 sq. ft. $285
2018-11-23 Single Family Colonial Providence, RI $170,000 1,080 sq. ft. 4,356 sq. ft. $157
2018-11-23 Single Family Colonial 103 Detroit Av Providence, RI 02907 $169,000 1,152 sq. ft. 4,792 sq. ft. $147
2018-11-21 Single Family Cape Cod 290 River Av Providence, RI 02908 $149,900 1,606 sq. ft. 4,792 sq. ft. $93
2018-11-21 Single Family Raised Ranch 14 Myra St Providence, RI 02909 $244,900 1,248 sq. ft. 6,098 sq. ft. $196
2018-11-20 Single Family Bungalow; Colonial 212 Gray St Providence, RI 02908 $268,755 1,658 sq. ft. 6,098 sq. ft. $162
2018-11-20 Single Family Ranch 45 Imera Av Providence, RI 02908 $169,000 816 sq. ft. 3,049 sq. ft. $207
2018-11-19 Single Family 102 Colfax St Providence, RI 02905 $179,900 1,267 sq. ft. 4,356 sq. ft. $142
2018-11-19 Single Family Ranch 603 Pleasant Valley Pkwy Providence, RI 02908 $224,500 1,104 sq. ft. 4,792 sq. ft. $203
2018-11-19 Single Family Bungalow 197 Warrington St Providence, RI 02907 $170,000 1,982 sq. ft. 0 sq. ft. $86
2018-11-19 Single Family Colonial 184 Fruit Hill Av Providence, RI 02911 $309,900 1,456 sq. ft. 10,890 sq. ft. $213
2018-11-16 Single Family Cape Cod 71 Corina St Providence, RI 02908 $183,000 1,796 sq. ft. 3,049 sq. ft. $102
2018-11-16 Single Family Ranch 33 Fruit Hill Av Providence, RI 02909 $199,999 1,125 sq. ft. 3,920 sq. ft. $178
2018-11-15 Single Family Colonial; Historic 145 Lexington Av Providence, RI 02907 $225,000 2,837 sq. ft. 8,276 sq. ft. $79
2018-11-14 Single Family Victorian 158 Woodward Rd Providence, RI 02904 $409,900 4,085 sq. ft. 25,265 sq. ft. $100
2018-11-13 Single Family Ranch 21 Bel Air Dr Providence, RI 02911 $189,900 899 sq. ft. 7,405 sq. ft. $211
2018-11-13 Single Family Colonial 52 Luna St Providence, RI 02904 $185,000 1,968 sq. ft. 6,098 sq. ft. $94
2018-11-13 Single Family 83 Daniel Av Providence, RI 02909 $200,000 1,800 sq. ft. 3,049 sq. ft. $111
2018-11-13 Single Family Victorian 31 Stamford Av Providence, RI 02907 $220,000 1,319 sq. ft. 3,485 sq. ft. $167
2018-11-13 Single Family Raised Ranch 25 Horton St Providence, RI 02904 $219,900 984 sq. ft. 4,792 sq. ft. $223
2018-11-12 Single Family Colonial 34 Vandewater St Providence, RI 02904 $229,999 1,536 sq. ft. 3,049 sq. ft. $150
2018-11-12 Single Family Bungalow; Cottage 551 Pleasant Valley Pkwy Providence, RI 02908 $155,000 1,142 sq. ft. 3,920 sq. ft. $136
2018-11-09 Single Family Cape Cod 28 Erie St Providence, RI 02908 $188,000 768 sq. ft. 6,098 sq. ft. $245
2018-11-09 Single Family Colonial 88 Henrietta St Providence, RI 02904 $274,900 1,560 sq. ft. 5,227 sq. ft. $176
2018-11-08 Single Family Ranch 111 Parnell St Providence, RI 02909 $149,000 768 sq. ft. 3,049 sq. ft. $194
2018-11-08 Single Family Colonial 39 Melissa St Providence, RI 02909 $199,900 1,344 sq. ft. 3,485 sq. ft. $149
2018-11-07 Single Family Bungalow 1729 Chalkstone Av Providence, RI 02909 $160,900 1,183 sq. ft. 6,098 sq. ft. $136
2018-11-06 Single Family Colonial 66 Christopher St Providence, RI 02904 $289,900 1,560 sq. ft. 4,356 sq. ft. $186
2018-11-05 Single Family Ranch 63 Joseph St Providence, RI 02904 $161,900 960 sq. ft. 3,049 sq. ft. $169
2018-11-05 Single Family Cape Cod; Colonial 902 Douglas Av Providence, RI 02908 $209,900 1,200 sq. ft. 3,049 sq. ft. $175
2018-11-02 Single Family 640 Public St Providence, RI 02907 $189,900 2,178 sq. ft. 2,614 sq. ft. $87
2018-11-01 Single Family Raised Ranch 38 Redwing St Providence, RI 02907 $205,000 2,063 sq. ft. 3,049 sq. ft. $99
2018-11-01 Single Family Victorian 291 Massachusetts Av Providence, RI 02905 $179,900 1,872 sq. ft. 3,920 sq. ft. $96
2018-11-01 Single Family Cape Cod 213 Unit St Providence, RI 02909 $159,900 720 sq. ft. 4,792 sq. ft. $222
2018-11-01 Single Family 95 Providence St Providence, RI 02907 $180,000 1,620 sq. ft. 4,792 sq. ft. $111
2018-11-01 Single Family Colonial 43 Winthrop Av Providence, RI 02908 $204,999 1,456 sq. ft. 4,792 sq. ft. $141
2018-10-31 Single Family Cape Cod; Colonial; Raised Ranch 44 Corinth St Providence, RI 02907 $222,000 1,856 sq. ft. 4,356 sq. ft. $120
2018-10-31 Single Family Ranch 20 Calhoun Av Providence, RI 02907 $173,900 1,056 sq. ft. 2,614 sq. ft. $165
2018-10-31 Single Family Ranch 37 Wainwright St Providence, RI 02908 $209,900 1,080 sq. ft. 3,485 sq. ft. $194
2018-10-30 Single Family Ranch 1260 Smith St Providence, RI 02908 $244,900 912 sq. ft. 4,792 sq. ft. $269
2018-10-29 Single Family Ranch 27 Verdic St Providence, RI 02909 $224,900 998 sq. ft. 4,356 sq. ft. $225
2018-10-29 Single Family Ranch 105 Galileo Av Providence, RI 02909 $249,000 1,256 sq. ft. 7,405 sq. ft. $198
2018-10-28 Single Family Cape Cod; Colonial 41 Homer St Providence, RI 02905 $199,000 1,344 sq. ft. 2,178 sq. ft. $148
2018-10-28 Single Family Cape Cod 40 Ophelia St Providence, RI 02909 $189,000 1,180 sq. ft. 6,098 sq. ft. $160
2018-10-26 Single Family Colonial 132 Warrington St Providence, RI 02907 $159,900 1,362 sq. ft. 4,792 sq. ft. $117
2018-10-26 Single Family Victorian 196 California Av Providence, RI 02905 $229,900 1,662 sq. ft. 3,049 sq. ft. $138
2018-10-26 Single Family Ranch 129 Springfield St Providence, RI 02909 $144,900 960 sq. ft. 0 sq. ft. $151
2018-10-26 Single Family Cottage; Victorian 15 Kepler St Providence, RI 02908 $159,900 1,230 sq. ft. 4,792 sq. ft. $130
2018-10-23 Single Family Bungalow 16 Searle St Providence, RI 02905 $179,900 1,995 sq. ft. 2,614 sq. ft. $90
2018-10-23 Single Family Ranch 79 Stella St Providence, RI 02909 $164,900 1,045 sq. ft. 4,356 sq. ft. $158
2018-10-23 Single Family Ranch 85 Naples Av Providence, RI 02908 $219,000 1,144 sq. ft. 5,227 sq. ft. $191
2018-10-22 Single Family Ranch 867 Plainfield St Providence, RI 02909 $255,000 1,949 sq. ft. 28,314 sq. ft. $131
2018-10-22 Single Family Colonial 73 Seamans St Providence, RI 02908 $214,900 1,421 sq. ft. 3,485 sq. ft. $151
2018-10-21 Single Family Bungalow 42 Ford St Providence, RI 02907 $115,000 1,485 sq. ft. 3,049 sq. ft. $77
2018-10-21 Single Family Cottage 9 Sawyer St Providence, RI 02907 $250,000 1,400 sq. ft. 5,227 sq. ft. $179
2018-10-19 Single Family Colonial 296 Potters Av Providence, RI 02905 $154,900 1,792 sq. ft. 2,178 sq. ft. $86
2018-10-19 Single Family Cape Cod 204 Rounds Av Providence, RI 02907 $140,000 1,175 sq. ft. 4,356 sq. ft. $119
2018-10-18 Single Family Ranch 139 Regent Av Providence, RI 02908 $89,900 480 sq. ft. 1,742 sq. ft. $187
2018-10-16 Single Family 79 Barrows St Providence, RI 02909 $205,000 1,725 sq. ft. 3,485 sq. ft. $119
2018-10-16 Single Family Ranch 40 Glossop St Providence, RI 02911 $169,900 843 sq. ft. 3,485 sq. ft. $202
2018-10-14 Single Family Bungalow 87 Terrace Av Providence, RI 02909 $159,900 1,300 sq. ft. 3,049 sq. ft. $123
2018-10-13 Single Family Cape Cod 87 Jastram St Providence, RI 02908 $275,000 1,401 sq. ft. 4,792 sq. ft. $196
2018-10-13 Single Family Colonial 108 Ohio Av Providence, RI 02905 $199,000 1,653 sq. ft. 3,049 sq. ft. $120
2018-10-12 Single Family Cape Cod 89 Sandringham Av Providence, RI 02908 $174,000 1,030 sq. ft. 3,485 sq. ft. $169
2018-10-12 Single Family Cape Cod 340 Eaton St Providence, RI 02908 $244,900 1,716 sq. ft. 5,663 sq. ft. $143
2018-10-12 Single Family Bungalow 63 Marion Av Providence, RI 02905 $149,900 786 sq. ft. 3,049 sq. ft. $191
2018-10-11 Single Family Colonial 19 Basswood Av Providence, RI 02908 $269,900 2,036 sq. ft. 5,227 sq. ft. $133
2018-10-11 Single Family Colonial 111 Babcock St Providence, RI 02905 $194,900 1,201 sq. ft. 6,970 sq. ft. $162
2018-10-10 Single Family Cape Cod 54 Winona St Providence, RI 02904 $279,900 1,909 sq. ft. 5,227 sq. ft. $147
2018-10-10 Single Family Bungalow 26 Applegate Lane Providence, RI 02905 $89,900 816 sq. ft. 3,920 sq. ft. $110
2018-10-10 Single Family 33 Hillhurst Av Providence, RI 02909 $165,000 1,146 sq. ft. 3,485 sq. ft. $144
2018-10-08 Single Family Colonial 62 Rosedale St Providence, RI 02909 $124,900 1,414 sq. ft. 4,792 sq. ft. $88
2018-10-08 Single Family Colonial 32 Garfield Av Providence, RI 02908 $129,900 1,123 sq. ft. 4,356 sq. ft. $116
2018-10-05 Single Family Raised Ranch 51 Niagara St Providence, RI 02907 $184,900 960 sq. ft. 3,049 sq. ft. $193
2018-10-05 Single Family 58 Ashmont St Providence, RI 02905 $184,900 1,116 sq. ft. 3,485 sq. ft. $166
2018-10-03 Single Family Bungalow; Colonial 95 Georgia Av Providence, RI 02905 $185,000 1,637 sq. ft. 3,485 sq. ft. $113
2018-10-02 Single Family Colonial 29 Farragut Av Providence, RI 02905 $249,900 1,728 sq. ft. 3,049 sq. ft. $145
2018-10-02 Single Family Colonial 119 Laurel Hill Av Providence, RI 02909 $124,900 1,680 sq. ft. 3,920 sq. ft. $74
2018-09-29 Single Family Colonial 42 Raphael Av Providence, RI 02904 $194,900 1,160 sq. ft. 7,841 sq. ft. $168
2018-09-29 Single Family Ranch 37 Lyndhurst Av Providence, RI 02908 $199,900 1,461 sq. ft. 4,792 sq. ft. $137
2018-09-28 Single Family Ranch 24 Hilarity St Providence, RI 02909 $200,000 1,082 sq. ft. 4,792 sq. ft. $185
2018-09-28 Single Family Ranch 80 Basswood Av Providence, RI 02908 $209,900 1,040 sq. ft. 4,356 sq. ft. $202
2018-09-26 Single Family Ranch 78 Sunset Av Providence, RI 02909 $229,900 1,506 sq. ft. 7,841 sq. ft. $153
2018-09-26 Single Family Ranch 593 Academy Av Providence, RI 02908 $259,900 1,092 sq. ft. 7,841 sq. ft. $238
2018-09-26 Single Family Victorian 109 Daboll St Providence, RI 02907 $155,000 2,371 sq. ft. 6,098 sq. ft. $65
2018-09-26 Single Family Bungalow 12 Searle St Providence, RI 02905 $179,900 1,995 sq. ft. 2,178 sq. ft. $90
2018-09-25 Single Family Colonial 25 Frederick St Providence, RI 02908 $66,900 1,097 sq. ft. 3,049 sq. ft. $61
2018-09-24 Single Family Raised Ranch 4 Cloud St Providence, RI 02909 $245,000 1,008 sq. ft. 4,356 sq. ft. $243
2018-09-21 Single Family Raised Ranch 53 Wilna St Providence, RI 02904 $235,000 1,472 sq. ft. 6,534 sq. ft. $160
2018-09-21 Single Family Cape Cod 88 Minto St Providence, RI 02908 $218,500 1,568 sq. ft. 4,356 sq. ft. $139
2018-09-20 Single Family Cottage 213 Ohio Av Providence, RI 02905 $169,900 1,138 sq. ft. 3,049 sq. ft. $149
2018-09-20 Single Family Cape Cod 52 Cheshire St Providence, RI 02908 $179,000 941 sq. ft. 5,663 sq. ft. $190
2018-09-19 Single Family Bungalow 741 River Av Providence, RI 02908 $249,900 1,966 sq. ft. 7,405 sq. ft. $127
2018-09-19 Single Family Colonial 100 Ohio Av Providence, RI 02905 $189,000 1,736 sq. ft. 3,049 sq. ft. $109
2018-09-17 Single Family Colonial 28 College Rd Providence, RI 02908 $234,900 1,491 sq. ft. 3,485 sq. ft. $158
2018-09-14 Single Family Raised Ranch 61 Trask St Providence, RI 02905 $45,000 1,204 sq. ft. 6,534 sq. ft. $37
2018-09-13 Single Family Cape Cod 57 Rome Av Providence, RI 02908 $279,900 1,382 sq. ft. 7,405 sq. ft. $203
2018-09-12 Single Family Colonial; Contemporary 21 Laban St Providence, RI 02909 $150,000 1,100 sq. ft. 2,614 sq. ft. $136
2018-09-12 Single Family Colonial 45 Malvern St Providence, RI 02904 $160,000 1,395 sq. ft. 6,970 sq. ft. $115
2018-09-12 Single Family 98 Atlantic Av Providence, RI 02907 $140,000 1,566 sq. ft. 3,920 sq. ft. $89
2018-09-11 Single Family Colonial 188 - 190 Admiral St Providence, RI 02908 $142,600 2,388 sq. ft. 7,841 sq. ft. $60
2018-09-11 Single Family Colonial 62 Klondike St Providence, RI 02909 $265,000 1,956 sq. ft. 6,098 sq. ft. $135
2018-09-10 Single Family Cape Cod 46 Myra St Providence, RI 02909 $134,900 728 sq. ft. 5,227 sq. ft. $185
2018-09-08 Single Family Ranch 83 Isabella Av Providence, RI 02908 $235,000 1,134 sq. ft. 8,712 sq. ft. $207
2018-09-07 Single Family Raised Ranch 65 Wilna St Providence, RI 02904 $199,900 1,008 sq. ft. 3,049 sq. ft. $198
2018-09-02 Single Family Ranch 113 Lubec St Providence, RI 02904 $179,900 1,004 sq. ft. 3,049 sq. ft. $179
2018-08-31 Single Family Bungalow 20 Searle St Providence, RI 02905 $179,900 1,508 sq. ft. 3,049 sq. ft. $119
2018-08-31 Single Family Bungalow 100 Miller Av Providence, RI 02905 $125,000 1,402 sq. ft. 4,792 sq. ft. $89
2018-08-30 Single Family Colonial 18 Flora St Providence, RI 02904 $155,000 1,800 sq. ft. 4,356 sq. ft. $86
2018-08-30 Single Family Bungalow 50 Laban St Providence, RI 02909 $149,900 1,048 sq. ft. 5,663 sq. ft. $143
2018-08-29 Single Family Cape Cod 20 Shafter St Providence, RI 02909 $154,900 992 sq. ft. 3,920 sq. ft. $156
2018-08-29 Single Family Ranch 40 What Cheer Av Providence, RI 02909 $162,000 988 sq. ft. 2,614 sq. ft. $164
2018-08-27 Single Family Raised Ranch 12 Linda Ct Providence, RI 02904 $209,900 920 sq. ft. 6,098 sq. ft. $228
2018-08-25 Single Family Bungalow 42 Homer St Providence, RI 02905 $214,900 1,456 sq. ft. 3,049 sq. ft. $148
2018-08-24 Single Family Bungalow 18 Crowninshield St Providence, RI 02909 $179,800 1,251 sq. ft. 2,614 sq. ft. $144
2018-08-23 Single Family Cape Cod 14 Plymouth St Providence, RI 02907 $89,900 832 sq. ft. 2,614 sq. ft. $108
2018-08-22 Single Family Colonial 70 - 72 Swift St Providence, RI 02904 $150,000 966 sq. ft. 3,920 sq. ft. $155
2018-08-21 Single Family Ranch 2 Clove St Providence, RI 02908 $284,900 2,046 sq. ft. 5,663 sq. ft. $139
2018-08-21 Single Family 73 Camden Av Providence, RI 02908 $179,900 786 sq. ft. 3,049 sq. ft. $229
2018-08-20 Single Family Bungalow 227 Laban St Providence, RI 02909 $174,900 1,296 sq. ft. 3,920 sq. ft. $135
2018-08-20 Single Family 76 Beaufort St Providence, RI 02908 $150,000 1,761 sq. ft. 5,663 sq. ft. $85
2018-08-16 Single Family 176 Vermont Av Providence, RI 02905 $189,900 1,446 sq. ft. 3,049 sq. ft. $131
2018-08-16 Single Family Colonial 1159 Smith St Providence, RI 02908 $195,000 1,224 sq. ft. 4,356 sq. ft. $159
2018-08-16 Single Family Colonial 124 Salina St Providence, RI 02908 $209,500 1,100 sq. ft. 3,920 sq. ft. $190
2018-08-16 Single Family Colonial 101 Alverson St Providence, RI 02909 $190,000 768 sq. ft. 4,792 sq. ft. $247
2018-08-14 Single Family Ranch 22 Halton St Providence, RI 02907 $154,900 960 sq. ft. 2,614 sq. ft. $161
2018-08-14 Single Family Colonial 40 Longmont St Providence, RI 02908 $219,000 1,522 sq. ft. 3,920 sq. ft. $144
2018-08-14 Single Family Raised Ranch 973 Douglas Av Providence, RI 02908 $269,900 1,288 sq. ft. 4,792 sq. ft. $210
2018-08-11 Single Family 184 Stanwood St Providence, RI 02907 $130,000 1,945 sq. ft. 3,485 sq. ft. $67
2018-08-10 Single Family Bungalow 58 Grosvenor Av Providence, RI 02908 $127,000 1,123 sq. ft. 3,049 sq. ft. $113
2018-08-08 Single Family Colonial; Raised Ranch; Single Family-Attached 65 Longwood Av Providence, RI 02908 $289,900 2,408 sq. ft. 6,534 sq. ft. $120
2018-08-06 Single Family Colonial 37 Jillson St Providence, RI 02905 $160,000 1,056 sq. ft. 3,920 sq. ft. $152
2018-08-06 Single Family Raised Ranch 776 Mount Pleasant Av Providence, RI 02908 $274,000 1,400 sq. ft. 8,276 sq. ft. $196
2018-08-06 Single Family Bungalow 43 Bristol Av Providence, RI 02909 $194,000 1,144 sq. ft. 4,792 sq. ft. $170
2018-08-05 Single Family Cape Cod 59 Webster Av Providence, RI 02909 $189,000 1,244 sq. ft. 2,178 sq. ft. $152
2018-07-30 Single Family Cape Cod 130 Sumter St Providence, RI 02907 $209,900 984 sq. ft. 3,920 sq. ft. $213
2018-07-24 Single Family Colonial 33 Corinth St Providence, RI 02907 $219,900 1,328 sq. ft. 5,227 sq. ft. $166
2018-07-20 Single Family Bungalow 74 Calla St Providence, RI 02905 $210,000 1,552 sq. ft. 3,049 sq. ft. $135
2018-07-20 Single Family Colonial 7 Pennsylvania Av Providence, RI 02905 $174,900 1,248 sq. ft. 2,614 sq. ft. $140
2018-07-13 Single Family Colonial 67 Sisson St Providence, RI 02909 $200,000 1,200 sq. ft. 5,227 sq. ft. $167
2018-07-13 Single Family Colonial 635 Chalkstone Av Providence, RI 02908 $169,900 1,295 sq. ft. 2,614 sq. ft. $131
2018-07-12 Single Family Colonial 139 Carr St Providence, RI 02905 $239,000 1,612 sq. ft. 3,049 sq. ft. $148
2018-07-12 Single Family Contemporary 14 Maxcy Dr Providence, RI 02906 $777,100 4,392 sq. ft. 9,148 sq. ft. $177
2018-06-29 Single Family Colonial 558 Pleasant Valley Pkwy Providence, RI 02908 $274,900 2,644 sq. ft. 13,068 sq. ft. $104
2018-06-26 Single Family Colonial 47 Leslie Dr Providence, RI 02908 $399,900 2,766 sq. ft. 9,583 sq. ft. $145
2018-06-23 Single Family Colonial; Ranch 73 Prescott St Providence, RI 02908 $148,400 864 sq. ft. 7,405 sq. ft. $172
2018-06-22 Single Family Ranch 1555 Chalkstone Av Providence, RI 02909 $269,900 1,574 sq. ft. 14,375 sq. ft. $171
2018-06-21 Single Family Cape Cod 171 Chad Brown St Providence, RI 02908 $200,000 882 sq. ft. 4,792 sq. ft. $227
2018-06-21 Single Family 21 Constitution St Providence, RI 02907 $174,900 1,184 sq. ft. 3,920 sq. ft. $148
2018-06-08 Single Family Bungalow 26 Delmar Av Providence, RI 02907 $209,900 1,602 sq. ft. 3,485 sq. ft. $131
2018-06-06 Single Family Bungalow 176 Jastram St Providence, RI 02908 $234,900 1,200 sq. ft. 4,792 sq. ft. $196
2018-06-05 Single Family Colonial 1003 Douglas Av Providence, RI 02904 $189,000 1,664 sq. ft. 3,485 sq. ft. $114
2018-05-31 Single Family Colonial 125 Reservoir Av Providence, RI 02907 $189,900 1,347 sq. ft. 3,049 sq. ft. $141
2018-05-25 Single Family Raised Ranch 117 Babcock St Providence, RI 02905 $219,000 3,049 sq. ft. 3,049 sq. ft. $72
2018-05-16 Single Family Cape Cod 42 Prosper St Providence, RI 02904 $174,900 1,092 sq. ft. 6,098 sq. ft. $160
2018-05-10 Single Family Colonial 39 Hymer St Providence, RI 02908 $249,000 1,700 sq. ft. 3,049 sq. ft. $146
2018-05-08 Single Family Ranch 1 Ralston St Providence, RI 02904 $248,000 1,136 sq. ft. 7,405 sq. ft. $218
2018-04-16 Single Family Bungalow 45 Sisson St Providence, RI 02909 $174,900 1,248 sq. ft. 3,049 sq. ft. $140
2018-03-21 Single Family Cottage; Victorian 183 Alabama Av Providence, RI 02905 $239,900 1,200 sq. ft. 6,534 sq. ft. $200
2018-03-20 Single Family Cape Cod 93 Bowlet St Providence, RI 02909 $159,900 1,165 sq. ft. 4,356 sq. ft. $137
2018-03-17 Single Family Bungalow 222 Sterling Av Providence, RI 02909 $159,900 1,230 sq. ft. 3,920 sq. ft. $130
2017-10-21 Single Family Colonial 9 Applegate Lane Providence, RI 02905 $184,900 1,386 sq. ft. 2,614 sq. ft. $133
2017-09-28 Single Family Cape Cod 32 Malvern St Providence, RI 02904 $207,000 1,766 sq. ft. 9,583 sq. ft. $117
2017-09-13 Single Family Colonial; Cottage 69 - 61,71 Thornton St Providence, RI 02909 $190,000 1,636 sq. ft. 8,276 sq. ft. $116
2017-09-11 Single Family Cottage 52 Borinquen St Providence, RI 02905 $129,900 1,266 sq. ft. 7,405 sq. ft. $103
2017-08-24 Single Family Ranch 19 Bassi Lane Providence, RI 02909 $219,900 1,712 sq. ft. 13,068 sq. ft. $128
2017-08-14 Single Family Victorian 68 Pitman St Providence, RI 02906 $399,000 1,119 sq. ft. 7,841 sq. ft. $357
2017-07-06 Single Family Ranch 9 Evelyn St Providence, RI 02909 $189,000 1,056 sq. ft. 6,970 sq. ft. $179
2017-07-03 Single Family Colonial; Victorian 130 Mount Pleasant Av Providence, RI 02908 $159,900 1,362 sq. ft. 6,534 sq. ft. $117
2017-06-26 Single Family Bungalow 263 California Av Providence, RI 02905 $139,900 1,508 sq. ft. 3,049 sq. ft. $93
2017-05-20 Single Family Split Level 86 Erie St Providence, RI 02908 $289,900 1,387 sq. ft. 6,098 sq. ft. $209
2017-05-03 Single Family Ranch 24 Brockton St Providence, RI 02904 $179,000 1,258 sq. ft. 6,534 sq. ft. $142
2017-03-30 Single Family Victorian 137 Wallace St Providence, RI 02909 $199,900 2,346 sq. ft. 3,920 sq. ft. $85
2017-03-28 Single Family Colonial 23 Annie St Providence, RI 02908 $279,900 1,560 sq. ft. 3,920 sq. ft. $179
2017-03-27 Single Family Bungalow 126 Washington Av Providence, RI 02905 $119,900 840 sq. ft. 3,485 sq. ft. $143
2017-03-21 Single Family Colonial 37 Homer St Providence, RI 02905 $90,000 3,049 sq. ft.
2017-03-15 Single Family Contemporary 92 Seamans St Providence, RI 02908 $199,000 1,082 sq. ft. 8,276 sq. ft. $184
2017-03-07 Single Family Colonial 122 Laban St Providence, RI 02909 $249,900 1,768 sq. ft. 10,019 sq. ft. $141